createdAt,value
2022-10-05T00:00:20.961Z,11.90
2022-10-05T00:02:52.343Z,11.90
2022-10-05T00:05:32.635Z,11.80
2022-10-05T00:08:11.751Z,11.80
2022-10-05T00:10:41.411Z,11.70
2022-10-05T00:13:13.763Z,11.70
2022-10-05T00:15:40.498Z,11.60
2022-10-05T00:18:15.915Z,11.60
2022-10-05T00:20:46.362Z,11.60
2022-10-05T00:23:24.304Z,11.50
2022-10-05T00:25:57.134Z,11.50
2022-10-05T00:28:30.336Z,11.50
2022-10-05T00:31:00.801Z,11.50
2022-10-05T00:33:28.240Z,11.40
2022-10-05T00:35:57.706Z,11.40
2022-10-05T00:38:24.399Z,11.30
2022-10-05T00:41:08.903Z,11.30
2022-10-05T00:43:38.584Z,11.30
2022-10-05T00:46:16.858Z,11.40
2022-10-05T00:48:56.374Z,11.40
2022-10-05T00:51:28.023Z,11.40
2022-10-05T00:54:18.623Z,11.40
2022-10-05T00:57:00.300Z,11.30
2022-10-05T00:59:51.562Z,11.30
2022-10-05T01:02:37.218Z,11.30
2022-10-05T01:05:15.790Z,11.20
2022-10-05T01:07:54.204Z,11.10
2022-10-05T01:10:24.079Z,11.10
2022-10-05T01:12:55.772Z,11.10
2022-10-05T01:15:34.040Z,11.00
2022-10-05T01:20:51.578Z,10.80
2022-10-05T01:23:42.475Z,10.70
2022-10-05T01:26:30.626Z,10.70
2022-10-05T01:29:21.469Z,10.70
2022-10-05T01:31:53.562Z,10.80
2022-10-05T01:34:29.070Z,10.90
2022-10-05T01:36:55.656Z,10.90
2022-10-05T01:39:43.876Z,10.90
2022-10-05T01:42:45.776Z,10.80
2022-10-05T01:45:58.476Z,10.70
2022-10-05T01:48:46.203Z,10.90
2022-10-05T01:51:35.194Z,10.90
2022-10-05T01:54:16.697Z,10.90
2022-10-05T01:56:51.979Z,10.80
2022-10-05T01:59:23.912Z,10.90
2022-10-05T02:01:59.851Z,10.90
2022-10-05T02:05:00.962Z,11.00
2022-10-05T02:07:27.300Z,10.90
2022-10-05T02:10:04.633Z,11.00
2022-10-05T02:12:35.558Z,10.90
2022-10-05T02:15:12.737Z,10.90
2022-10-05T02:17:45.738Z,10.90
2022-10-05T02:20:20.733Z,10.80
2022-10-05T02:22:51.190Z,10.80
2022-10-05T02:25:24.864Z,10.90
2022-10-05T02:27:56.739Z,10.80
2022-10-05T02:30:23.837Z,10.90
2022-10-05T02:33:01.286Z,10.90
2022-10-05T02:35:30.240Z,10.90
2022-10-05T02:38:10.765Z,10.90
2022-10-05T02:40:49.392Z,10.90
2022-10-05T02:43:31.118Z,10.90
2022-10-05T02:46:05.932Z,10.90
2022-10-05T02:48:54.486Z,11.00
2022-10-05T02:51:36.465Z,10.90
2022-10-05T02:54:06.157Z,11.00
2022-10-05T02:56:37.095Z,11.00
2022-10-05T02:59:37.133Z,11.10
2022-10-05T03:02:12.925Z,11.10
2022-10-05T03:04:59.237Z,11.10
2022-10-05T03:07:53.001Z,11.10
2022-10-05T03:10:38.050Z,11.10
2022-10-05T03:13:28.749Z,11.20
2022-10-05T03:16:06.801Z,11.20
2022-10-05T03:19:03.656Z,11.10
2022-10-05T03:21:42.268Z,11.10
2022-10-05T03:24:20.857Z,11.10
2022-10-05T03:27:13.441Z,11.20
2022-10-05T03:30:11.189Z,11.20
2022-10-05T03:32:51.014Z,11.10
2022-10-05T03:36:08.498Z,11.20
2022-10-05T03:39:04.037Z,11.20
2022-10-05T03:41:47.232Z,11.20
2022-10-05T03:44:28.332Z,11.20
2022-10-05T03:47:02.976Z,11.20
2022-10-05T03:49:53.817Z,11.20
2022-10-05T03:52:35.138Z,11.30
2022-10-05T03:55:13.536Z,11.30
2022-10-05T03:57:42.417Z,11.30
2022-10-05T04:00:23.237Z,11.30
2022-10-05T04:03:12.590Z,11.30
2022-10-05T04:05:51.910Z,11.30
2022-10-05T04:08:25.034Z,11.30
2022-10-05T04:10:57.222Z,11.30
2022-10-05T04:13:44.363Z,11.30
2022-10-05T04:16:28.222Z,11.30
2022-10-05T04:19:12.396Z,11.30
2022-10-05T04:22:11.894Z,11.30
2022-10-05T04:24:58.432Z,11.30
2022-10-05T04:27:39.179Z,11.40
2022-10-05T04:30:12.498Z,11.40
2022-10-05T04:32:43.407Z,11.40
2022-10-05T04:35:15.184Z,11.40
2022-10-05T04:38:03.530Z,11.40
2022-10-05T04:40:41.637Z,11.40
2022-10-05T04:43:19.140Z,11.40
2022-10-05T04:45:57.700Z,11.40
2022-10-05T04:48:45.906Z,11.40
2022-10-05T04:51:37.074Z,11.40
2022-10-05T04:54:06.884Z,11.40
2022-10-05T04:56:38.556Z,11.40
2022-10-05T04:59:17.607Z,11.40
2022-10-05T05:01:50.255Z,11.40
2022-10-05T05:04:26.149Z,11.40
2022-10-05T05:07:15.985Z,11.40
2022-10-05T05:10:14.770Z,11.30
2022-10-05T05:12:50.635Z,11.30
2022-10-05T05:15:37.688Z,11.30
2022-10-05T05:18:35.561Z,11.30
2022-10-05T05:21:46.588Z,11.30
2022-10-05T05:24:22.307Z,11.30
2022-10-05T05:27:06.536Z,11.20
2022-10-05T05:30:03.761Z,11.20
2022-10-05T05:33:00.761Z,11.20
2022-10-05T05:35:41.702Z,11.20
2022-10-05T05:38:31.572Z,11.20
2022-10-05T05:41:05.203Z,11.20
2022-10-05T05:43:56.510Z,11.20
2022-10-05T05:47:03.053Z,11.20
2022-10-05T05:49:54.198Z,11.10
2022-10-05T05:52:42.916Z,11.10
2022-10-05T05:55:19.942Z,11.10
2022-10-05T05:57:50.617Z,11.10
2022-10-05T06:00:32.533Z,11.10
2022-10-05T06:03:25.779Z,11.10
2022-10-05T06:06:04.239Z,11.10
2022-10-05T06:08:42.484Z,11.20
2022-10-05T06:11:20.687Z,11.20
2022-10-05T06:13:47.811Z,11.10
2022-10-05T06:16:22.016Z,11.20
2022-10-05T06:18:56.300Z,11.20
2022-10-05T06:21:41.783Z,11.20
2022-10-05T06:24:16.496Z,11.30
2022-10-05T06:27:04.426Z,11.40
2022-10-05T06:30:23.648Z,11.40
2022-10-05T06:32:50.273Z,11.50
2022-10-05T06:35:30.246Z,11.50
2022-10-05T06:38:23.537Z,11.60
2022-10-05T06:41:15.387Z,11.50
2022-10-05T06:44:14.295Z,11.60
2022-10-05T06:46:59.226Z,11.60
2022-10-05T06:49:49.900Z,11.70
2022-10-05T06:52:35.590Z,11.70
2022-10-05T06:55:04.399Z,11.80
2022-10-05T06:58:05.232Z,11.80
2022-10-05T07:00:56.290Z,11.90
2022-10-05T07:03:51.679Z,12.00
2022-10-05T07:06:21.135Z,12.10
2022-10-05T07:08:47.767Z,12.20
2022-10-05T07:11:42.414Z,12.20
2022-10-05T07:14:58.831Z,12.30
2022-10-05T07:17:56.853Z,12.40
2022-10-05T07:20:34.620Z,12.40
2022-10-05T07:23:02.012Z,12.40
2022-10-05T07:25:35.574Z,12.50
2022-10-05T07:28:13.331Z,12.60
2022-10-05T07:30:54.918Z,12.70
2022-10-05T07:33:33.096Z,12.70
2022-10-05T07:36:41.390Z,12.80
2022-10-05T07:39:18.673Z,12.80
2022-10-05T07:41:51.613Z,12.80
2022-10-05T07:44:28.316Z,12.90
2022-10-05T07:47:20.567Z,13.00
2022-10-05T07:50:11.748Z,13.10
2022-10-05T07:52:41.445Z,13.10
2022-10-05T07:55:21.718Z,13.20
2022-10-05T07:58:06.014Z,13.30
2022-10-05T08:00:41.781Z,13.30
2022-10-05T08:03:29.615Z,13.40
2022-10-05T08:05:58.930Z,13.40
2022-10-05T08:08:35.638Z,13.50
2022-10-05T08:11:18.874Z,13.50
2022-10-05T08:14:03.092Z,13.60
2022-10-05T08:16:37.855Z,13.60
2022-10-05T08:19:21.440Z,13.60
2022-10-05T08:21:54.130Z,13.70
2022-10-05T08:24:39.016Z,13.70
2022-10-05T08:27:14.364Z,13.80
2022-10-05T08:29:43.864Z,13.80
2022-10-05T08:32:41.185Z,13.90
2022-10-05T08:35:25.375Z,14.00
2022-10-05T08:37:52.793Z,14.00
2022-10-05T08:40:21.449Z,14.10
2022-10-05T08:42:59.945Z,14.10
2022-10-05T08:45:57.542Z,14.10
2022-10-05T08:48:48.461Z,14.20
2022-10-05T08:51:21.227Z,14.30
2022-10-05T08:54:25.521Z,14.40
2022-10-05T08:57:12.606Z,14.50
2022-10-05T09:00:16.521Z,14.60
2022-10-05T09:03:22.228Z,14.60
2022-10-05T09:06:06.806Z,14.70
2022-10-05T09:08:53.742Z,14.80
2022-10-05T09:11:44.759Z,14.80
2022-10-05T09:14:33.822Z,14.90
2022-10-05T09:17:39.536Z,15.00
2022-10-05T09:20:23.692Z,15.00
2022-10-05T09:23:16.498Z,15.00
2022-10-05T09:25:55.394Z,15.10
2022-10-05T09:28:43.272Z,15.10
2022-10-05T09:31:21.974Z,15.20
2022-10-05T09:34:26.418Z,15.40
2022-10-05T09:37:36.959Z,15.60
2022-10-05T09:40:44.999Z,15.80
2022-10-05T09:43:46.689Z,15.60
2022-10-05T09:46:40.648Z,16.10
2022-10-05T09:49:24.016Z,16.40
2022-10-05T09:52:18.986Z,16.50
2022-10-05T09:54:51.745Z,16.70
2022-10-05T09:57:36.076Z,16.80
2022-10-05T10:00:30.231Z,17.00
2022-10-05T10:03:19.193Z,17.10
2022-10-05T10:06:23.831Z,17.20
2022-10-05T10:09:10.803Z,17.30
2022-10-05T10:12:02.843Z,17.40
2022-10-05T10:14:49.384Z,17.50
2022-10-05T10:17:55.607Z,17.70
2022-10-05T10:20:58.104Z,17.80
2022-10-05T10:23:46.017Z,18.00
2022-10-05T10:26:12.779Z,18.00
2022-10-05T10:28:47.793Z,18.10
2022-10-05T10:31:23.573Z,18.20
2022-10-05T10:33:50.242Z,18.30
2022-10-05T10:36:47.380Z,18.30
2022-10-05T10:39:31.842Z,18.50
2022-10-05T10:42:32.274Z,18.70
2022-10-05T10:45:36.642Z,18.70
2022-10-05T10:48:48.557Z,18.50
2022-10-05T10:51:42.295Z,18.50
2022-10-05T10:54:24.495Z,18.50
2022-10-05T10:56:55.283Z,18.50
2022-10-05T11:00:01.178Z,18.40
2022-10-05T11:02:42.291Z,18.40
2022-10-05T11:05:56.667Z,18.30
2022-10-05T11:08:41.814Z,18.40
2022-10-05T11:11:35.371Z,18.40
2022-10-05T11:14:23.438Z,18.30
2022-10-05T11:17:08.424Z,18.20
2022-10-05T11:20:09.207Z,18.20
2022-10-05T11:22:51.684Z,18.20
2022-10-05T11:25:41.473Z,18.20
2022-10-05T11:28:45.283Z,18.20
2022-10-05T11:31:20.940Z,18.30
2022-10-05T11:34:12.063Z,18.20
2022-10-05T11:36:59.979Z,18.20
2022-10-05T11:39:39.810Z,18.20
2022-10-05T11:42:15.707Z,18.20
2022-10-05T11:45:06.759Z,18.30
2022-10-05T11:47:39.388Z,18.30
2022-10-05T11:50:46.857Z,18.30
2022-10-05T11:53:37.521Z,18.20
2022-10-05T11:56:20.085Z,18.30
2022-10-05T11:58:54.172Z,18.30
2022-10-05T12:01:30.507Z,18.30
2022-10-05T12:04:25.449Z,18.40
2022-10-05T12:07:17.933Z,18.30
2022-10-05T12:10:16.977Z,18.40
2022-10-05T12:12:58.292Z,18.50
2022-10-05T12:15:37.730Z,18.40
2022-10-05T12:18:18.378Z,18.40
2022-10-05T12:21:05.014Z,18.50
2022-10-05T12:23:43.450Z,18.50
2022-10-05T12:26:45.452Z,18.60
2022-10-05T12:29:38.301Z,18.70
2022-10-05T12:32:16.116Z,18.70
2022-10-05T12:35:11.378Z,18.60
2022-10-05T12:37:54.572Z,18.50
2022-10-05T12:40:30.315Z,18.50
2022-10-05T12:43:20.672Z,18.50
2022-10-05T12:46:05.112Z,18.50
2022-10-05T12:48:59.665Z,18.40
2022-10-05T12:51:54.634Z,18.50
2022-10-05T12:54:30.265Z,18.50
2022-10-05T12:57:15.429Z,18.40
2022-10-05T12:59:50.496Z,18.50
2022-10-05T13:02:29.993Z,18.50
2022-10-05T13:05:14.377Z,18.50
2022-10-05T13:08:08.835Z,18.50
2022-10-05T13:10:46.727Z,18.50
2022-10-05T13:13:25.524Z,18.50
2022-10-05T13:16:19.359Z,18.50
2022-10-05T13:19:13.395Z,18.50
2022-10-05T13:21:46.224Z,18.50
2022-10-05T13:24:18.009Z,18.50
2022-10-05T13:26:51.872Z,18.50
2022-10-05T13:29:33.248Z,18.50
2022-10-05T13:32:22.595Z,18.40
2022-10-05T13:35:23.434Z,18.40
2022-10-05T13:37:56.183Z,18.50
2022-10-05T13:40:53.454Z,18.60
2022-10-05T13:43:26.194Z,18.80
2022-10-05T13:45:57.121Z,18.90
2022-10-05T13:49:29.506Z,19.00
2022-10-05T13:52:08.672Z,18.90
2022-10-05T13:54:54.350Z,18.90
2022-10-05T13:57:36.144Z,19.00
2022-10-05T14:00:13.398Z,19.00
2022-10-05T14:02:44.657Z,19.00
2022-10-05T14:05:22.167Z,19.00
2022-10-05T14:07:51.965Z,19.10
2022-10-05T14:10:38.194Z,19.10
2022-10-05T14:13:29.048Z,19.10
2022-10-05T14:16:17.989Z,19.40
2022-10-05T14:19:05.772Z,19.40
2022-10-05T14:21:47.100Z,19.50
2022-10-05T14:24:45.191Z,19.60
2022-10-05T14:27:27.504Z,19.70
2022-10-05T14:30:00.482Z,20.10
2022-10-05T14:32:32.375Z,20.50
2022-10-05T14:35:12.780Z,21.30
2022-10-05T14:37:50.412Z,22.90
2022-10-05T14:40:30.622Z,26.30
2022-10-05T14:43:04.079Z,26.40
2022-10-05T14:45:32.540Z,28.80
2022-10-05T14:48:02.413Z,29.10
2022-10-05T14:50:33.050Z,29.50
2022-10-05T14:53:17.625Z,29.20
2022-10-05T14:56:00.661Z,27.40
2022-10-05T14:58:49.033Z,25.50
2022-10-05T15:01:27.813Z,24.00
2022-10-05T15:04:07.186Z,23.00
2022-10-05T15:06:42.358Z,22.10
2022-10-05T15:09:38.050Z,21.50
2022-10-05T15:12:05.383Z,21.10
2022-10-05T15:14:36.811Z,20.80
2022-10-05T15:17:14.879Z,20.60
2022-10-05T15:19:47.512Z,20.50
2022-10-05T15:22:31.723Z,20.40
2022-10-05T15:25:21.492Z,20.20
2022-10-05T15:28:06.611Z,20.10
2022-10-05T15:30:39.957Z,20.00
2022-10-05T15:33:28.849Z,19.90
2022-10-05T15:36:23.377Z,19.90
2022-10-05T15:39:04.126Z,19.80
2022-10-05T15:41:36.567Z,19.80
2022-10-05T15:44:21.195Z,19.80
2022-10-05T15:46:47.874Z,19.70
2022-10-05T15:49:38.915Z,19.60
2022-10-05T15:52:38.830Z,19.60
2022-10-05T15:55:20.338Z,19.50
2022-10-05T15:57:47.877Z,19.50
2022-10-05T16:00:17.405Z,19.40
2022-10-05T16:02:52.136Z,19.40
2022-10-05T16:06:13.204Z,19.40
2022-10-05T16:08:54.735Z,19.30
2022-10-05T16:11:40.594Z,19.30
2022-10-05T16:14:17.407Z,19.30
2022-10-05T16:17:21.821Z,19.20
2022-10-05T16:19:57.598Z,19.20
2022-10-05T16:22:31.141Z,19.10
2022-10-05T16:25:14.979Z,19.00
2022-10-05T16:27:47.955Z,19.00
2022-10-05T16:30:23.224Z,18.90
2022-10-05T16:33:08.541Z,18.80
2022-10-05T16:35:38.085Z,18.70
2022-10-05T16:38:15.120Z,18.60
2022-10-05T16:40:50.570Z,18.60
2022-10-05T16:43:35.813Z,18.60
2022-10-05T16:46:27.870Z,18.50
2022-10-05T16:49:16.400Z,18.50
2022-10-05T16:52:06.601Z,18.40
2022-10-05T16:54:48.237Z,18.40
2022-10-05T16:57:21.114Z,18.40
2022-10-05T17:00:04.096Z,18.30
2022-10-05T17:02:39.714Z,18.40
2022-10-05T17:05:44.211Z,18.40
2022-10-05T17:08:45.430Z,18.40
2022-10-05T17:11:16.652Z,18.40
2022-10-05T17:13:55.988Z,18.30
2022-10-05T17:16:57.970Z,18.30
2022-10-05T17:20:05.413Z,18.30
2022-10-05T17:23:19.609Z,18.40
2022-10-05T17:25:54.548Z,18.40
2022-10-05T17:28:41.586Z,18.40
2022-10-05T17:31:18.239Z,18.40
2022-10-05T17:34:00.218Z,18.30
2022-10-05T17:36:49.342Z,18.30
2022-10-05T17:39:42.035Z,18.30
2022-10-05T17:42:45.307Z,18.20
2022-10-05T17:45:14.524Z,18.20
2022-10-05T17:48:05.909Z,18.20
2022-10-05T17:51:11.317Z,18.10
2022-10-05T17:54:02.991Z,18.10
2022-10-05T17:56:49.190Z,18.10
2022-10-05T17:59:56.837Z,18.10
2022-10-05T18:02:36.163Z,18.10
2022-10-05T18:05:16.173Z,18.10
2022-10-05T18:07:48.658Z,18.10
2022-10-05T18:10:28.642Z,18.00
2022-10-05T18:13:01.502Z,18.00
2022-10-05T18:15:28.270Z,18.00
2022-10-05T18:18:19.975Z,17.90
2022-10-05T18:21:14.448Z,17.90
2022-10-05T18:23:47.279Z,17.90
2022-10-05T18:26:43.679Z,17.90
2022-10-05T18:29:36.183Z,17.90
2022-10-05T18:32:15.162Z,17.90
2022-10-05T18:35:00.938Z,17.90
2022-10-05T18:37:52.771Z,17.90
2022-10-05T18:40:53.454Z,18.00
2022-10-05T18:43:40.702Z,17.90
2022-10-05T18:46:31.285Z,17.90
2022-10-05T18:49:05.236Z,17.90
2022-10-05T18:51:51.799Z,17.90
2022-10-05T18:54:35.960Z,18.00
2022-10-05T18:57:25.242Z,18.00
2022-10-05T19:00:18.721Z,18.00
2022-10-05T19:03:00.187Z,17.90
2022-10-05T19:06:07.366Z,17.80
2022-10-05T19:08:44.465Z,17.80
2022-10-05T19:11:17.915Z,17.70
2022-10-05T19:14:18.613Z,17.70
2022-10-05T19:16:45.522Z,17.60
2022-10-05T19:19:32.441Z,17.60
2022-10-05T19:22:20.790Z,17.60
2022-10-05T19:24:49.468Z,17.50
2022-10-05T19:27:37.531Z,17.50
2022-10-05T19:30:27.175Z,17.50
2022-10-05T19:33:16.896Z,17.40
2022-10-05T19:35:58.010Z,17.40
2022-10-05T19:38:54.458Z,17.40
2022-10-05T19:41:29.182Z,17.30
2022-10-05T19:44:10.480Z,17.30
2022-10-05T19:46:44.604Z,17.20
2022-10-05T19:49:11.503Z,17.20
2022-10-05T19:51:50.514Z,17.10
2022-10-05T19:54:29.790Z,17.10
2022-10-05T19:56:59.806Z,17.00
2022-10-05T19:59:31.364Z,16.90
2022-10-05T20:01:59.674Z,16.90
2022-10-05T20:04:35.455Z,16.90
2022-10-05T20:07:05.192Z,16.90
2022-10-05T20:09:49.128Z,16.80
2022-10-05T20:12:16.049Z,16.80
2022-10-05T20:15:01.193Z,16.70
2022-10-05T20:17:47.704Z,16.60
2022-10-05T20:20:38.181Z,16.60
2022-10-05T20:23:24.400Z,16.60
2022-10-05T20:26:12.648Z,16.60
2022-10-05T20:28:39.477Z,16.60
2022-10-05T20:31:08.022Z,16.70
2022-10-05T20:33:34.993Z,16.70
2022-10-05T20:36:05.286Z,16.80
2022-10-05T20:38:41.052Z,16.80
2022-10-05T20:41:08.389Z,16.80
2022-10-05T20:43:38.990Z,16.90
2022-10-05T20:46:06.289Z,16.90
2022-10-05T20:48:36.033Z,16.90
2022-10-05T20:51:02.637Z,16.80
2022-10-05T20:53:29.470Z,16.90
2022-10-05T20:55:59.705Z,16.90
2022-10-05T20:58:31.379Z,16.80
2022-10-05T21:01:19.906Z,16.80
2022-10-05T21:03:47.600Z,16.90
2022-10-05T21:06:14.324Z,16.90
2022-10-05T21:08:41.057Z,16.90
2022-10-05T21:11:08.950Z,16.90
2022-10-05T21:13:44.731Z,16.90
2022-10-05T21:16:13.461Z,16.90
2022-10-05T21:18:49.871Z,16.90
2022-10-05T21:21:18.017Z,16.80
2022-10-05T21:23:45.910Z,16.80
2022-10-05T21:26:13.429Z,16.80
2022-10-05T21:28:41.511Z,16.80
2022-10-05T21:31:09.311Z,16.80
2022-10-05T21:33:39.005Z,16.70
2022-10-05T21:36:08.495Z,16.80
2022-10-05T21:38:35.165Z,16.80
2022-10-05T21:41:04.167Z,16.80
2022-10-05T21:43:31.178Z,16.80
2022-10-05T21:46:05.911Z,16.80
2022-10-05T21:48:35.133Z,16.80
2022-10-05T21:51:03.053Z,16.80
2022-10-05T21:53:36.964Z,16.80
2022-10-05T21:56:08.012Z,16.80
2022-10-05T21:58:37.331Z,16.80
2022-10-05T22:01:04.161Z,16.80
2022-10-05T22:03:30.989Z,16.80
2022-10-05T22:05:57.823Z,16.80
2022-10-05T22:08:30.532Z,16.80
2022-10-05T22:10:58.846Z,16.90
2022-10-05T22:13:27.037Z,16.90
2022-10-05T22:15:56.386Z,16.90
2022-10-05T22:18:25.156Z,16.90
2022-10-05T22:20:53.282Z,16.80
2022-10-05T22:23:20.371Z,16.90
2022-10-05T22:25:47.790Z,16.90
2022-10-05T22:28:15.937Z,16.90
2022-10-05T22:30:44.906Z,16.90
2022-10-05T22:33:12.214Z,16.90
2022-10-05T22:35:39.697Z,16.80
2022-10-05T22:38:06.379Z,16.80
2022-10-05T22:40:33.056Z,16.80
2022-10-05T22:42:59.729Z,16.80
2022-10-05T22:45:32.461Z,16.80
2022-10-05T22:48:02.894Z,16.80
2022-10-05T22:50:31.799Z,16.90
2022-10-05T22:53:03.369Z,16.80
2022-10-05T22:55:30.066Z,16.90
2022-10-05T22:57:56.744Z,17.00
2022-10-05T23:00:35.237Z,17.00
2022-10-05T23:03:12.764Z,17.10
2022-10-05T23:05:39.418Z,17.10
2022-10-05T23:08:06.058Z,17.00
2022-10-05T23:10:33.974Z,16.90
2022-10-05T23:13:03.279Z,16.90
2022-10-05T23:15:29.929Z,16.80
2022-10-05T23:17:57.346Z,16.80
2022-10-05T23:20:26.694Z,16.80
2022-10-05T23:22:53.729Z,16.80
2022-10-05T23:25:22.105Z,16.70
2022-10-05T23:27:49.092Z,16.70
2022-10-05T23:30:18.208Z,16.70
2022-10-05T23:32:45.156Z,16.60
2022-10-05T23:35:13.024Z,16.60
2022-10-05T23:37:43.704Z,16.60
2022-10-05T23:40:12.802Z,16.60
2022-10-05T23:42:40.934Z,16.50
2022-10-05T23:45:09.210Z,16.50
2022-10-05T23:47:35.980Z,16.50
2022-10-05T23:50:03.604Z,16.50
2022-10-05T23:52:30.259Z,16.50
2022-10-05T23:54:56.920Z,16.40
2022-10-05T23:57:26.098Z,16.40
2022-10-05T23:59:56.284Z,16.40
